Time;durP1;ratioP1;P1;durP2;ratioP2;P2;SDS_P1;SDS_P2;PMS_P1;PMS_P2;Temp;Humidity;BMP_temperature;BMP_pressure;BME280_temperature;BME280_humidity;BME280_pressure;Samples;Min_cycle;Max_cycle;Signal;HPM_P1;HPM_P2
2022/10/21 00:00:33;;;;;;;17.23;10.77;;;14.90;99.90;;;;;;5047985;28;20198;-55
2022/10/21 00:03:00;;;;;;;14.03;10.30;;;14.90;99.90;;;;;;5048388;28;20192;-55
2022/10/21 00:05:27;;;;;;;14.27;10.50;;;14.90;99.90;;;;;;5047726;28;20245;-56
2022/10/21 00:07:54;;;;;;;15.27;9.67;;;14.90;99.90;;;;;;5042436;28;20207;-56
2022/10/21 00:10:21;;;;;;;17.33;10.80;;;15.00;99.90;;;;;;5049608;28;20225;-57
2022/10/21 00:12:47;;;;;;;18.17;11.23;;;15.00;99.90;;;;;;5059155;28;20212;-55
2022/10/21 00:15:14;;;;;;;14.43;9.80;;;15.00;99.90;;;;;;5048317;28;20205;-56
2022/10/21 00:17:42;;;;;;;17.63;10.57;;;15.00;99.90;;;;;;5050648;28;20205;-55
2022/10/21 00:20:11;;;;;;;16.13;10.70;;;15.00;99.90;;;;;;5050378;28;20213;-56
2022/10/21 00:22:38;;;;;;;14.50;10.10;;;15.00;99.90;;;;;;5050235;28;20648;-56
2022/10/21 00:25:05;;;;;;;17.30;10.80;;;15.00;99.90;;;;;;5050342;28;20208;-56
2022/10/21 00:27:32;;;;;;;15.63;10.47;;;15.10;99.90;;;;;;5044482;28;20208;-55
2022/10/21 00:29:59;;;;;;;16.23;10.63;;;15.10;99.90;;;;;;5047591;28;20209;-56
2022/10/21 00:32:26;;;;;;;18.97;11.47;;;15.10;99.90;;;;;;5044526;28;20665;-56
2022/10/21 00:34:52;;;;;;;15.47;10.40;;;15.10;99.90;;;;;;5046263;28;20201;-55
2022/10/21 00:37:19;;;;;;;14.63;10.33;;;15.10;99.90;;;;;;5050571;28;20198;-55
2022/10/21 00:39:46;;;;;;;20.33;12.60;;;15.00;99.90;;;;;;5045830;28;20199;-56
2022/10/21 00:42:16;;;;;;;16.70;11.13;;;14.90;99.90;;;;;;5051740;28;20201;-56
2022/10/21 00:45:00;;;;;;;18.60;10.80;;;14.90;99.90;;;;;;5050745;28;20206;-57
2022/10/21 00:47:26;;;;;;;16.93;11.27;;;14.90;99.90;;;;;;5047193;28;20212;-55
2022/10/21 00:49:58;;;;;;;16.00;11.63;;;15.00;99.90;;;;;;5056059;28;20662;-56
2022/10/21 00:52:26;;;;;;;19.67;11.17;;;15.00;99.90;;;;;;5054140;28;20642;-61
2022/10/21 00:54:56;;;;;;;15.40;11.33;;;14.90;99.90;;;;;;5051990;28;20208;-56
2022/10/21 00:57:25;;;;;;;13.60;10.73;;;14.90;99.90;;;;;;5051619;28;20201;-56
2022/10/21 00:59:58;;;;;;;14.60;11.00;;;14.90;99.90;;;;;;5050321;28;20204;-55
2022/10/21 01:02:26;;;;;;;18.53;12.13;;;14.90;99.90;;;;;;5051190;28;20572;-56
2022/10/21 01:04:57;;;;;;;16.80;10.60;;;14.80;99.90;;;;;;5057406;28;20708;-56
2022/10/21 01:07:24;;;;;;;16.67;11.93;;;14.80;99.90;;;;;;5052397;28;20201;-56
2022/10/21 01:09:51;;;;;;;18.37;11.37;;;14.80;99.90;;;;;;5050657;28;20225;-57
2022/10/21 01:12:47;;;;;;;21.53;12.40;;;14.80;99.90;;;;;;5050763;28;20223;-56
2022/10/21 01:15:37;;;;;;;17.03;11.70;;;14.80;99.90;;;;;;5050620;28;20689;-55
2022/10/21 01:18:11;;;;;;;16.23;11.63;;;14.70;99.90;;;;;;5046153;28;20217;-56
2022/10/21 01:21:02;;;;;;;14.50;11.10;;;14.70;99.90;;;;;;5040265;28;20299;-56
2022/10/21 01:23:59;;;;;;;19.70;12.07;;;14.70;99.90;;;;;;5050189;28;20212;-55
2022/10/21 01:26:32;;;;;;;16.83;11.53;;;14.60;99.90;;;;;;5049969;28;20693;-55
2022/10/21 01:29:30;;;;;;;16.70;12.53;;;14.60;99.90;;;;;;5031326;28;20577;-56
2022/10/21 01:32:06;;;;;;;18.13;12.00;;;14.60;99.90;;;;;;5045663;28;20659;-55
2022/10/21 01:34:45;;;;;;;16.70;12.20;;;14.60;99.90;;;;;;5047986;28;20207;-55
2022/10/21 01:37:24;;;;;;;16.40;11.27;;;14.60;99.90;;;;;;5041947;28;20202;-55
2022/10/21 01:40:04;;;;;;;19.87;11.77;;;14.60;99.90;;;;;;5048910;28;20201;-55
2022/10/21 01:42:55;;;;;;;16.57;11.70;;;14.50;99.90;;;;;;5051468;28;20225;-55
2022/10/21 01:45:46;;;;;;;15.63;11.50;;;14.60;99.90;;;;;;5048754;28;20601;-55
2022/10/21 01:48:20;;;;;;;15.63;11.10;;;14.50;99.90;;;;;;5050904;28;20222;-56
2022/10/21 01:50:53;;;;;;;16.00;11.93;;;14.60;99.90;;;;;;5048585;28;20203;-56
2022/10/21 01:53:22;;;;;;;16.43;11.00;;;14.50;99.90;;;;;;5049147;28;20668;-55
2022/10/21 01:55:51;;;;;;;16.93;11.67;;;14.50;99.90;;;;;;5045940;28;20204;-56
2022/10/21 01:58:22;;;;;;;15.70;11.90;;;14.50;99.90;;;;;;5044934;28;20203;-56
2022/10/21 02:00:52;;;;;;;18.07;11.33;;;14.50;99.90;;;;;;5039193;28;20196;-56
2022/10/21 02:03:23;;;;;;;17.67;11.07;;;14.50;99.90;;;;;;5061420;28;20248;-56
2022/10/21 02:05:50;;;;;;;17.40;11.17;;;14.50;99.90;;;;;;5043434;28;20201;-55
2022/10/21 02:08:17;;;;;;;17.07;11.03;;;14.50;99.90;;;;;;5049745;28;20214;-56
2022/10/21 02:10:55;;;;;;;15.23;10.97;;;14.50;99.90;;;;;;5048513;28;20580;-57
2022/10/21 02:13:25;;;;;;;14.53;10.17;;;14.50;99.90;;;;;;5045872;28;20232;-56
2022/10/21 02:15:56;;;;;;;17.10;10.93;;;14.40;99.90;;;;;;5048748;28;20643;-57
2022/10/21 02:18:25;;;;;;;15.37;10.70;;;14.30;99.90;;;;;;5048452;28;20214;-56
2022/10/21 02:21:03;;;;;;;14.93;10.67;;;14.30;99.90;;;;;;5062970;28;20210;-56
2022/10/21 02:23:49;;;;;;;16.63;11.63;;;14.40;99.90;;;;;;5043602;28;20237;-56
2022/10/21 02:26:17;;;;;;;18.17;10.50;;;14.40;99.90;;;;;;5045495;28;20211;-56
2022/10/21 02:28:43;;;;;;;15.97;11.27;;;14.30;99.90;;;;;;5044267;28;20655;-56
2022/10/21 02:31:25;;;;;;;13.33;10.17;;;14.30;99.90;;;;;;5041919;28;20299;-55
2022/10/21 02:34:18;;;;;;;13.90;9.90;;;14.30;99.90;;;;;;5048516;28;20211;-55
2022/10/21 02:37:07;;;;;;;16.93;10.17;;;14.20;99.90;;;;;;5029767;28;20212;-55
2022/10/21 02:39:59;;;;;;;16.17;10.60;;;14.30;99.90;;;;;;5034127;28;20574;-56
2022/10/21 02:42:31;;;;;;;15.77;10.17;;;14.20;99.90;;;;;;5045133;28;20204;-55
2022/10/21 02:48:43;;;;;;;15.53;10.30;;;14.30;99.90;;;;;;5046217;28;21033;-55
2022/10/21 02:51:10;;;;;;;17.10;10.43;;;14.30;99.90;;;;;;5048096;28;20223;-56
2022/10/21 02:53:37;;;;;;;13.93;9.70;;;14.30;99.90;;;;;;5046762;28;20245;-56
2022/10/21 02:56:04;;;;;;;15.77;9.70;;;14.20;99.90;;;;;;5048423;28;20294;-56
2022/10/21 02:58:31;;;;;;;13.40;9.40;;;14.20;99.90;;;;;;5046683;28;20703;-55
2022/10/21 03:00:58;;;;;;;13.50;9.90;;;14.30;99.90;;;;;;5048125;28;20217;-56
2022/10/21 03:03:25;;;;;;;18.47;9.50;;;14.30;99.90;;;;;;5047678;28;20207;-55
2022/10/21 03:05:54;;;;;;;14.73;10.60;;;14.20;99.90;;;;;;5049382;28;20961;-56
2022/10/21 03:08:20;;;;;;;12.87;8.97;;;14.20;99.90;;;;;;5048633;28;20228;-56
2022/10/21 03:10:49;;;;;;;13.70;10.17;;;14.20;99.90;;;;;;5046929;28;20231;-55
2022/10/21 03:13:19;;;;;;;15.00;10.80;;;14.20;99.90;;;;;;5061015;28;20362;-55
2022/10/21 03:15:48;;;;;;;13.90;10.33;;;14.20;99.90;;;;;;5047013;28;20206;-56
2022/10/21 03:18:15;;;;;;;14.63;9.33;;;14.20;99.90;;;;;;5045109;28;20354;-55
2022/10/21 03:20:42;;;;;;;12.67;9.13;;;14.20;99.90;;;;;;5045831;28;20222;-56
2022/10/21 03:23:09;;;;;;;14.50;10.07;;;14.10;99.90;;;;;;5047684;28;20215;-56
2022/10/21 03:25:35;;;;;;;13.50;10.77;;;14.10;99.90;;;;;;5046897;28;20211;-55
2022/10/21 03:28:02;;;;;;;16.47;9.87;;;14.10;99.90;;;;;;5045543;28;20205;-56
2022/10/21 03:30:29;;;;;;;14.87;8.83;;;14.10;99.90;;;;;;5041539;28;20210;-56
2022/10/21 03:32:56;;;;;;;14.03;9.37;;;14.10;99.90;;;;;;5047781;28;20225;-56
2022/10/21 03:35:22;;;;;;;14.37;9.27;;;14.10;99.90;;;;;;5043713;28;20249;-56
2022/10/21 03:37:49;;;;;;;12.80;9.40;;;14.10;99.90;;;;;;5045808;28;20287;-55
2022/10/21 03:40:16;;;;;;;12.83;9.37;;;14.10;99.90;;;;;;5034421;28;20202;-56
2022/10/21 03:42:43;;;;;;;17.03;10.17;;;14.20;99.90;;;;;;5047493;28;20212;-56
2022/10/21 03:45:10;;;;;;;14.23;9.07;;;14.20;99.90;;;;;;5044313;28;20204;-55
2022/10/21 03:47:37;;;;;;;16.30;9.53;;;14.10;99.90;;;;;;5044433;28;20556;-55
2022/10/21 03:50:06;;;;;;;12.30;8.87;;;14.00;99.90;;;;;;5042393;28;20562;-55
2022/10/21 03:52:39;;;;;;;12.30;9.83;;;14.00;99.90;;;;;;5049918;28;20236;-56
2022/10/21 03:55:07;;;;;;;16.43;9.47;;;14.00;99.90;;;;;;5048427;28;20294;-56
2022/10/21 03:57:33;;;;;;;14.17;8.70;;;14.10;99.90;;;;;;5047970;28;20878;-55
2022/10/21 04:00:00;;;;;;;11.37;9.03;;;14.10;99.90;;;;;;5040751;28;20214;-55
2022/10/21 04:02:27;;;;;;;13.37;8.40;;;14.10;99.90;;;;;;5046000;28;20269;-54
2022/10/21 04:04:54;;;;;;;13.97;9.20;;;14.10;99.90;;;;;;5047446;28;20200;-56
2022/10/21 04:07:21;;;;;;;10.80;8.57;;;14.10;99.90;;;;;;5051356;28;20221;-56
2022/10/21 04:09:47;;;;;;;14.37;9.93;;;14.10;99.90;;;;;;5048532;28;20719;-56
2022/10/21 04:12:14;;;;;;;14.30;8.33;;;14.10;99.90;;;;;;5050000;28;20217;-56
2022/10/21 04:14:41;;;;;;;11.07;7.93;;;14.10;99.90;;;;;;5047935;28;20686;-55
2022/10/21 04:17:08;;;;;;;10.27;7.80;;;14.10;99.90;;;;;;5047465;28;20204;-56
2022/10/21 04:19:34;;;;;;;11.97;8.13;;;14.10;99.90;;;;;;5049264;28;20558;-55
2022/10/21 04:22:01;;;;;;;12.43;7.87;;;14.10;99.90;;;;;;5051427;28;20565;-56
2022/10/21 04:24:28;;;;;;;11.90;8.07;;;14.00;99.90;;;;;;5049127;28;20232;-55
2022/10/21 04:26:55;;;;;;;11.17;8.00;;;13.90;99.90;;;;;;5045105;28;20200;-57
2022/10/21 04:29:21;;;;;;;10.47;7.40;;;13.80;99.90;;;;;;5044080;28;20645;-56
2022/10/21 04:31:48;;;;;;;11.00;7.63;;;13.80;99.90;;;;;;5043810;28;20219;-56
2022/10/21 04:34:15;;;;;;;9.20;7.23;;;13.80;99.90;;;;;;5043796;28;20552;-57
2022/10/21 04:36:42;;;;;;;11.43;7.70;;;13.80;99.90;;;;;;5044150;28;20200;-55
2022/10/21 04:39:08;;;;;;;11.67;7.47;;;13.80;99.90;;;;;;5043386;28;20208;-55
2022/10/21 04:41:35;;;;;;;13.53;7.70;;;13.80;99.90;;;;;;5045663;28;20572;-55
2022/10/21 04:44:03;;;;;;;9.60;7.03;;;13.70;99.90;;;;;;5042405;28;20208;-56
2022/10/21 04:46:30;;;;;;;8.93;6.70;;;13.80;99.90;;;;;;5044202;28;20651;-55
2022/10/21 04:48:57;;;;;;;13.93;6.40;;;13.70;99.90;;;;;;5041985;28;20679;-56
2022/10/21 04:51:24;;;;;;;9.10;6.80;;;13.70;99.90;;;;;;5043576;28;20205;-56
2022/10/21 04:53:50;;;;;;;11.13;6.17;;;13.70;99.90;;;;;;5044623;28;20331;-55
2022/10/21 04:56:17;;;;;;;8.17;6.57;;;13.70;99.90;;;;;;5047204;28;20573;-56
2022/10/21 04:58:44;;;;;;;10.60;6.23;;;13.70;99.90;;;;;;5041753;28;20213;-55
2022/10/21 05:01:10;;;;;;;12.80;6.00;;;13.70;99.90;;;;;;5035684;28;20572;-56
2022/10/21 05:03:37;;;;;;;13.00;6.93;;;13.70;99.90;;;;;;5033924;28;20587;-56
2022/10/21 05:06:04;;;;;;;9.10;5.83;;;13.70;99.90;;;;;;5039030;28;20214;-56
2022/10/21 05:08:31;;;;;;;13.43;6.43;;;13.80;99.90;;;;;;5041554;28;20200;-65
2022/10/21 05:11:00;;;;;;;10.37;6.07;;;13.70;99.90;;;;;;5040315;28;20226;-56
2022/10/21 05:13:27;;;;;;;9.33;5.70;;;13.70;99.90;;;;;;5045135;28;20231;-56
2022/10/21 05:16:01;;;;;;;9.47;5.67;;;13.70;99.90;;;;;;5043805;28;20196;-56
2022/10/21 05:18:29;;;;;;;6.70;5.13;;;13.60;99.90;;;;;;5047661;28;20197;-56
2022/10/21 05:20:56;;;;;;;10.00;5.87;;;13.60;99.90;;;;;;5045109;28;20704;-56
2022/10/21 05:23:24;;;;;;;8.10;6.03;;;13.70;99.90;;;;;;5041885;28;20199;-56
2022/10/21 05:25:51;;;;;;;9.30;5.57;;;13.70;99.90;;;;;;5046002;28;20211;-55
2022/10/21 05:28:19;;;;;;;8.93;5.50;;;13.70;99.90;;;;;;5047818;28;20302;-55
2022/10/21 05:30:46;;;;;;;8.73;4.77;;;13.70;99.90;;;;;;5041720;28;20224;-55
2022/10/21 05:33:13;;;;;;;7.83;4.80;;;13.80;99.90;;;;;;5042074;28;20220;-56
2022/10/21 05:35:40;;;;;;;8.20;4.63;;;13.80;99.90;;;;;;5042420;28;20215;-56
2022/10/21 05:38:06;;;;;;;11.30;4.33;;;13.70;99.90;;;;;;5043838;28;20208;-57
2022/10/21 05:40:33;;;;;;;8.50;4.20;;;13.70;99.90;;;;;;5042101;28;20238;-56
2022/10/21 05:43:00;;;;;;;9.23;4.50;;;13.70;99.90;;;;;;5043255;28;20644;-57
2022/10/21 05:45:27;;;;;;;7.93;4.53;;;13.70;99.90;;;;;;5042881;28;20207;-56
2022/10/21 05:47:54;;;;;;;4.87;4.07;;;13.70;99.90;;;;;;5041793;28;20213;-57
2022/10/21 05:50:20;;;;;;;6.10;4.20;;;13.60;99.90;;;;;;5045742;28;20279;-56
2022/10/21 05:52:47;;;;;;;7.10;4.13;;;13.70;99.90;;;;;;5041844;28;20703;-56
2022/10/21 05:55:14;;;;;;;7.30;4.37;;;13.60;99.90;;;;;;5047499;28;20542;-55
2022/10/21 05:57:41;;;;;;;6.13;4.33;;;13.70;99.90;;;;;;5046744;28;20207;-56
2022/10/21 06:00:08;;;;;;;9.80;4.43;;;13.70;99.90;;;;;;5043937;28;20193;-56
2022/10/21 06:02:35;;;;;;;9.63;4.10;;;13.60;99.90;;;;;;5032030;28;20218;-57
2022/10/21 06:05:02;;;;;;;8.53;4.20;;;13.70;99.90;;;;;;4679991;28;9999820;-56
2022/10/21 06:07:29;;;;;;;6.07;4.00;;;13.70;99.90;;;;;;5024522;28;20520;-56
2022/10/21 06:09:56;;;;;;;7.33;4.10;;;13.70;99.90;;;;;;5039980;28;20309;-56
2022/10/21 06:12:23;;;;;;;7.27;4.00;;;13.70;99.90;;;;;;5044690;28;20216;-55
2022/10/21 06:14:50;;;;;;;6.13;4.27;;;13.70;99.90;;;;;;5045993;28;20206;-56
2022/10/21 06:17:18;;;;;;;5.73;4.33;;;13.70;99.90;;;;;;5038866;28;20830;-55
2022/10/21 06:19:44;;;;;;;7.83;4.47;;;13.70;99.90;;;;;;5045106;28;20201;-55
2022/10/21 06:22:16;;;;;;;8.00;4.10;;;13.80;99.90;;;;;;5039025;28;20199;-56
2022/10/21 06:24:43;;;;;;;6.90;3.90;;;13.80;99.90;;;;;;5034965;28;23471;-56
2022/10/21 06:27:10;;;;;;;5.63;3.50;;;13.60;99.90;;;;;;5045107;28;20196;-55
2022/10/21 06:29:36;;;;;;;8.10;3.87;;;13.60;99.90;;;;;;5043088;28;20198;-56
2022/10/21 06:32:03;;;;;;;7.27;3.93;;;13.60;99.90;;;;;;5044319;28;20212;-57
2022/10/21 06:34:30;;;;;;;6.73;4.10;;;13.60;99.90;;;;;;5043144;28;20245;-55
2022/10/21 06:36:57;;;;;;;6.73;4.00;;;13.60;99.90;;;;;;5046765;28;20231;-56
2022/10/21 06:39:24;;;;;;;5.60;3.50;;;13.70;99.90;;;;;;5038042;28;20204;-56
2022/10/21 06:41:51;;;;;;;5.57;4.23;;;13.60;99.90;;;;;;5046606;28;20211;-56
2022/10/21 06:44:17;;;;;;;6.60;4.30;;;13.60;99.90;;;;;;5049139;28;20206;-56
2022/10/21 06:46:44;;;;;;;7.13;4.80;;;13.60;99.90;;;;;;5041112;28;20234;-56
2022/10/21 06:49:11;;;;;;;9.93;4.60;;;13.60;99.90;;;;;;5043292;28;20204;-56
2022/10/21 06:51:38;;;;;;;9.97;4.77;;;13.60;99.90;;;;;;5068792;28;20300;-56
2022/10/21 06:54:05;;;;;;;7.00;4.03;;;13.60;99.90;;;;;;5042612;28;20267;-56
2022/10/21 06:56:31;;;;;;;9.87;5.00;;;13.70;99.90;;;;;;5044914;28;20195;-56
2022/10/21 06:58:58;;;;;;;4.93;4.20;;;13.70;99.90;;;;;;5044046;28;20204;-56
2022/10/21 07:01:28;;;;;;;12.17;4.97;;;13.70;99.90;;;;;;5046615;28;20221;-56
2022/10/21 07:04:13;;;;;;;8.77;4.47;;;13.70;99.90;;;;;;5047217;28;20208;-56
2022/10/21 07:06:40;;;;;;;6.90;4.77;;;13.70;99.90;;;;;;5047095;28;20208;-56
2022/10/21 07:09:08;;;;;;;9.00;4.43;;;13.70;99.90;;;;;;5043214;28;20207;-56
2022/10/21 07:11:35;;;;;;;10.07;4.27;;;13.80;99.90;;;;;;5039374;28;20228;-56
2022/10/21 07:14:02;;;;;;;8.87;5.00;;;13.80;99.90;;;;;;5040742;28;20666;-56
2022/10/21 07:16:32;;;;;;;8.37;4.47;;;13.80;99.90;;;;;;5038876;28;20203;-55
2022/10/21 07:18:59;;;;;;;5.67;4.13;;;13.70;99.90;;;;;;5040763;28;20189;-56
2022/10/21 07:21:28;;;;;;;7.47;4.47;;;13.80;99.90;;;;;;5037826;28;20207;-56
2022/10/21 07:23:57;;;;;;;6.43;4.00;;;13.80;99.90;;;;;;5042979;28;20210;-56
2022/10/21 07:26:27;;;;;;;7.17;4.67;;;13.80;99.90;;;;;;5047162;28;20991;-56
2022/10/21 07:28:57;;;;;;;8.13;4.70;;;13.90;99.90;;;;;;5046707;28;20199;-55
2022/10/21 07:31:24;;;;;;;9.87;5.00;;;13.90;99.90;;;;;;5044055;28;20206;-55
2022/10/21 07:33:51;;;;;;;7.03;4.70;;;13.90;99.90;;;;;;5047539;28;20671;-56
2022/10/21 07:36:25;;;;;;;6.77;4.63;;;14.00;99.90;;;;;;5044808;28;20230;-64
2022/10/21 07:38:53;;;;;;;7.87;4.33;;;14.00;99.90;;;;;;5046310;28;20217;-55
2022/10/21 07:41:23;;;;;;;9.43;4.83;;;14.00;99.90;;;;;;5048217;28;20215;-56
2022/10/21 07:43:50;;;;;;;5.50;4.23;;;14.10;99.90;;;;;;5046341;28;20211;-56
2022/10/21 07:46:18;;;;;;;7.27;4.53;;;14.10;99.90;;;;;;5046526;28;20204;-55
2022/10/21 07:48:45;;;;;;;8.80;4.80;;;14.10;99.90;;;;;;5038873;28;20302;-55
2022/10/21 07:51:14;;;;;;;7.03;4.70;;;14.10;99.90;;;;;;5046949;28;20196;-57
2022/10/21 07:53:41;;;;;;;6.73;4.87;;;14.20;99.90;;;;;;5046267;28;20232;-59
2022/10/21 07:56:16;;;;;;;6.73;4.93;;;14.20;99.90;;;;;;5044869;28;20205;-56
2022/10/21 07:58:45;;;;;;;6.33;4.73;;;14.20;99.90;;;;;;5042686;28;20200;-56
2022/10/21 08:01:13;;;;;;;6.13;4.33;;;14.20;99.90;;;;;;5044787;28;20202;-56
2022/10/21 08:03:41;;;;;;;7.30;4.50;;;14.20;99.90;;;;;;5048145;28;20664;-57
2022/10/21 08:06:09;;;;;;;6.60;4.40;;;14.20;99.90;;;;;;5043742;28;20207;-55
2022/10/21 08:08:36;;;;;;;7.30;4.27;;;14.20;99.90;;;;;;5043227;28;20268;-55
2022/10/21 08:11:04;;;;;;;8.53;4.03;;;14.20;99.90;;;;;;5044265;28;20227;-56
2022/10/21 08:13:32;;;;;;;8.90;4.53;;;14.20;99.90;;;;;;5043259;28;20235;-55
2022/10/21 08:15:59;;;;;;;10.27;4.57;;;14.30;99.90;;;;;;5044369;28;20197;-55
2022/10/21 08:18:27;;;;;;;5.27;4.20;;;14.30;99.90;;;;;;5037733;28;20303;-57
2022/10/21 08:20:54;;;;;;;7.60;4.77;;;14.20;99.90;;;;;;5046948;28;20206;-56
2022/10/21 08:23:22;;;;;;;7.03;4.10;;;14.20;99.90;;;;;;5044646;28;20227;-56
2022/10/21 08:25:55;;;;;;;9.03;4.00;;;14.20;99.90;;;;;;5046909;28;20202;-56
2022/10/21 08:28:26;;;;;;;17.27;4.93;;;14.30;99.90;;;;;;5044528;28;20751;-55
2022/10/21 08:31:00;;;;;;;9.30;4.07;;;14.20;99.90;;;;;;5044856;28;20197;-55
2022/10/21 08:33:28;;;;;;;5.10;4.23;;;14.20;99.90;;;;;;5045963;28;20207;-55
2022/10/21 08:35:55;;;;;;;9.17;3.80;;;14.20;99.90;;;;;;5044971;28;20687;-56
2022/10/21 08:38:22;;;;;;;4.63;3.40;;;14.20;99.90;;;;;;5048615;28;20201;-56
2022/10/21 08:40:49;;;;;;;9.43;3.90;;;14.30;99.90;;;;;;5046692;28;20196;-55
2022/10/21 08:43:28;;;;;;;10.30;4.20;;;14.30;99.90;;;;;;5049299;28;20649;-56
2022/10/21 08:46:02;;;;;;;6.37;4.13;;;14.30;99.90;;;;;;5046227;28;20231;-55
2022/10/21 08:48:35;;;;;;;5.23;3.90;;;14.30;99.90;;;;;;5048363;28;20223;-56
2022/10/21 08:51:05;;;;;;;6.13;4.07;;;14.30;99.90;;;;;;5048558;28;20204;-56
2022/10/21 08:53:39;;;;;;;6.27;3.53;;;14.30;99.90;;;;;;5055968;28;20334;-56
2022/10/21 08:56:11;;;;;;;6.67;3.70;;;14.40;99.90;;;;;;5050184;28;20305;-57
2022/10/21 08:58:47;;;;;;;6.87;3.83;;;14.40;99.90;;;;;;5039728;28;20204;-57
2022/10/21 09:01:36;;;;;;;8.60;3.73;;;14.40;99.90;;;;;;5047697;28;20200;-56
2022/10/21 09:04:14;;;;;;;8.33;3.60;;;14.50;99.90;;;;;;5049933;28;20196;-56
2022/10/21 09:06:47;;;;;;;10.73;3.60;;;14.50;99.90;;;;;;5042012;28;20215;-62
2022/10/21 09:09:16;;;;;;;6.07;3.50;;;14.50;99.90;;;;;;5037529;28;20204;-56
2022/10/21 09:12:08;;;;;;;5.57;3.23;;;14.60;99.90;;;;;;5050200;28;20218;-57
2022/10/21 09:14:35;;;;;;;4.83;2.93;;;14.60;99.90;;;;;;5037935;28;20209;-57
2022/10/21 09:17:17;;;;;;;10.30;3.33;;;14.60;99.90;;;;;;5044761;28;20846;-56
2022/10/21 09:20:02;;;;;;;7.10;3.60;;;14.70;99.90;;;;;;5049102;28;20652;-56
2022/10/21 09:22:51;;;;;;;6.07;3.20;;;14.70;99.90;;;;;;5041231;28;20192;-57
2022/10/21 09:25:36;;;;;;;7.23;3.63;;;14.70;99.90;;;;;;5050384;28;20196;-57
2022/10/21 09:28:11;;;;;;;18.33;11.83;;;14.80;99.90;;;;;;5040348;28;20290;-56
2022/10/21 09:30:40;;;;;;;9.53;4.00;;;14.80;99.90;;;;;;5046622;28;20195;-57
2022/10/21 09:33:17;;;;;;;5.17;3.13;;;14.90;99.90;;;;;;5048118;28;20215;-57
2022/10/21 09:35:50;;;;;;;6.07;3.10;;;14.90;99.90;;;;;;5055257;28;20195;-56
2022/10/21 09:38:36;;;;;;;5.70;2.90;;;14.90;99.90;;;;;;5050465;28;20210;-57
2022/10/21 09:41:04;;;;;;;9.33;3.13;;;15.00;99.90;;;;;;5048068;28;20192;-56
2022/10/21 09:43:31;;;;;;;4.77;3.03;;;15.10;99.90;;;;;;5046916;28;20653;-55
2022/10/21 09:45:58;;;;;;;7.47;3.07;;;15.10;99.90;;;;;;5047877;28;20200;-56
2022/10/21 09:48:34;;;;;;;6.50;3.60;;;15.20;99.90;;;;;;5049593;28;20657;-56
2022/10/21 09:51:25;;;;;;;5.97;3.00;;;15.20;99.90;;;;;;5044234;28;20224;-55
2022/10/21 09:53:56;;;;;;;6.30;3.00;;;15.20;99.90;;;;;;5049523;28;20738;-56
2022/10/21 09:56:37;;;;;;;5.23;2.90;;;15.30;99.90;;;;;;5049635;28;20563;-56
2022/10/21 09:59:15;;;;;;;6.00;2.83;;;15.40;99.90;;;;;;5043431;28;20196;-56
2022/10/21 10:01:43;;;;;;;4.50;2.10;;;15.50;99.90;;;;;;5044019;28;20200;-56
2022/10/21 10:04:09;;;;;;;7.17;2.50;;;15.50;99.90;;;;;;5048365;28;20209;-56
2022/10/21 10:06:39;;;;;;;5.50;2.60;;;15.50;99.90;;;;;;5039934;28;20203;-56
2022/10/21 10:09:36;;;;;;;4.13;2.23;;;15.70;99.90;;;;;;5046206;28;20207;-56
2022/10/21 10:12:11;;;;;;;6.37;1.77;;;15.80;99.90;;;;;;5043994;28;20225;-56
2022/10/21 10:14:41;;;;;;;4.13;1.90;;;15.90;99.90;;;;;;5045664;28;20255;-55
2022/10/21 10:17:18;;;;;;;3.63;1.77;;;15.90;99.90;;;;;;5040107;28;20201;-55
2022/10/21 10:20:03;;;;;;;5.33;1.70;;;16.00;99.90;;;;;;5049326;28;20279;-56
2022/10/21 10:22:41;;;;;;;2.40;1.43;;;16.00;99.90;;;;;;5051963;28;20201;-57
2022/10/21 10:25:17;;;;;;;3.03;1.73;;;16.10;99.90;;;;;;5050159;28;20291;-56
2022/10/21 10:27:58;;;;;;;3.87;2.00;;;16.00;99.90;;;;;;5055287;28;20222;-56
2022/10/21 10:30:35;;;;;;;5.53;1.73;;;16.10;99.90;;;;;;5049667;28;20199;-56
2022/10/21 10:33:15;;;;;;;3.30;1.47;;;16.20;99.90;;;;;;5053388;28;20200;-55
2022/10/21 10:35:57;;;;;;;7.07;1.90;;;16.20;99.90;;;;;;5049207;28;20199;-55
2022/10/21 10:38:41;;;;;;;5.43;1.53;;;16.30;99.90;;;;;;5053144;28;20288;-56
2022/10/21 10:41:12;;;;;;;7.17;1.60;;;16.30;99.90;;;;;;5051353;28;20641;-56
2022/10/21 10:43:54;;;;;;;3.67;1.60;;;16.40;99.90;;;;;;5054480;28;20206;-56
2022/10/21 10:46:38;;;;;;;5.70;2.07;;;16.40;99.90;;;;;;5050996;28;20264;-55
2022/10/21 10:49:14;;;;;;;2.13;1.50;;;16.50;99.90;;;;;;5048472;28;20690;-56
2022/10/21 10:51:45;;;;;;;4.70;1.40;;;16.60;99.90;;;;;;5052000;28;20204;-56
2022/10/21 10:54:22;;;;;;;6.27;2.00;;;16.60;99.90;;;;;;5045509;28;21377;-55
2022/10/21 10:56:55;;;;;;;3.33;1.93;;;16.70;99.90;;;;;;5045476;28;20897;-56
2022/10/21 10:59:27;;;;;;;4.93;1.67;;;16.80;99.90;;;;;;5044054;28;20194;-57
2022/10/21 11:02:10;;;;;;;4.60;1.83;;;17.00;99.90;;;;;;5037113;28;20258;-56
2022/10/21 11:05:07;;;;;;;5.90;2.40;;;17.20;99.90;;;;;;5047481;28;20206;-56
2022/10/21 11:07:46;;;;;;;6.80;2.13;;;17.30;99.90;;;;;;5046886;28;20535;-56
2022/10/21 11:10:33;;;;;;;4.80;2.07;;;17.40;99.90;;;;;;5048922;28;20769;-56
2022/10/21 11:13:08;;;;;;;3.53;2.30;;;17.60;99.90;;;;;;5048884;28;20210;-56
2022/10/21 11:15:45;;;;;;;7.10;2.37;;;17.80;99.90;;;;;;5048027;28;20218;-56
2022/10/21 11:18:33;;;;;;;4.67;2.30;;;18.10;99.90;;;;;;5049113;28;20211;-55
2022/10/21 11:21:18;;;;;;;4.97;2.87;;;18.20;99.90;;;;;;5048613;28;20857;-55
2022/10/21 11:24:20;;;;;;;5.00;2.27;;;18.30;99.90;;;;;;5048845;28;20226;-56
2022/10/21 11:27:10;;;;;;;2.83;2.13;;;18.40;99.90;;;;;;5047003;28;20241;-55
2022/10/21 11:30:07;;;;;;;5.47;1.90;;;18.50;99.90;;;;;;5047710;28;20203;-56
2022/10/21 11:33:11;;;;;;;3.90;2.40;;;18.80;99.90;;;;;;5049195;28;20210;-55
2022/10/21 11:35:42;;;;;;;4.43;1.80;;;18.80;99.90;;;;;;5027379;28;20234;-56
2022/10/21 11:38:32;;;;;;;3.03;1.97;;;18.80;99.90;;;;;;5047932;28;20210;-56
2022/10/21 11:41:17;;;;;;;6.43;2.13;;;19.00;99.90;;;;;;5047188;28;20678;-56
2022/10/21 11:44:11;;;;;;;3.37;1.83;;;19.20;99.90;;;;;;5040066;28;20957;-57
2022/10/21 11:47:02;;;;;;;2.90;1.70;;;19.30;99.90;;;;;;5047589;28;20212;-56
2022/10/21 11:49:34;;;;;;;2.63;1.60;;;19.20;99.90;;;;;;5048311;28;20206;-56
2022/10/21 11:52:17;;;;;;;3.73;1.63;;;19.20;99.90;;;;;;5044216;28;20203;-55
2022/10/21 11:55:31;;;;;;;5.30;1.40;;;19.10;99.90;;;;;;5046230;28;20664;-55
2022/10/21 11:58:23;;;;;;;4.40;1.50;;;18.90;99.90;;;;;;5036865;28;20575;-56
2022/10/21 12:01:07;;;;;;;6.30;1.50;;;18.90;99.90;;;;;;5035111;28;20242;-56
2022/10/21 12:03:49;;;;;;;6.00;1.47;;;18.90;99.90;;;;;;5043044;28;21328;-56
2022/10/21 12:06:39;;;;;;;2.60;1.17;;;18.90;99.90;;;;;;5059993;28;20192;-56
2022/10/21 12:09:19;;;;;;;4.73;1.73;;;18.80;99.90;;;;;;5051997;28;21533;-55
2022/10/21 12:11:57;;;;;;;5.77;1.57;;;18.80;99.90;;;;;;5045586;28;20286;-56
2022/10/21 12:14:29;;;;;;;4.97;1.80;;;18.60;99.90;;;;;;5049899;28;20211;-56
2022/10/21 12:17:00;;;;;;;4.63;1.50;;;18.50;99.90;;;;;;5045202;28;20671;-55
2022/10/21 12:19:27;;;;;;;4.73;1.73;;;18.60;99.90;;;;;;5047714;28;20212;-56
2022/10/21 12:21:54;;;;;;;3.23;1.53;;;18.60;99.90;;;;;;5049742;28;20557;-57
2022/10/21 12:24:31;;;;;;;2.73;1.30;;;18.80;99.90;;;;;;5043084;28;20208;-56
2022/10/21 12:27:02;;;;;;;2.10;1.03;;;19.00;99.90;;;;;;5039727;28;20211;-55
2022/10/21 12:29:51;;;;;;;4.30;1.60;;;19.00;99.90;;;;;;5041889;28;21242;-56
2022/10/21 12:32:27;;;;;;;5.77;1.70;;;18.90;99.90;;;;;;5047208;28;20265;-57
2022/10/21 12:34:55;;;;;;;4.50;1.67;;;18.80;99.90;;;;;;5047758;28;20215;-57
2022/10/21 12:38:03;;;;;;;5.47;1.50;;;18.80;99.90;;;;;;5043525;28;20218;-56
2022/10/21 12:40:31;;;;;;;1.97;1.10;;;18.70;99.90;;;;;;5046249;28;20232;-56
2022/10/21 12:43:22;;;;;;;3.40;1.40;;;18.60;99.90;;;;;;5045499;28;20337;-56
2022/10/21 12:46:05;;;;;;;2.70;1.40;;;18.60;99.90;;;;;;5048293;28;20317;-55
2022/10/21 12:48:38;;;;;;;2.20;1.20;;;18.50;99.90;;;;;;5038864;28;20555;-56
2022/10/21 12:51:17;;;;;;;4.00;1.20;;;18.50;99.90;;;;;;5041462;28;20939;-55
2022/10/21 12:53:52;;;;;;;2.70;1.00;;;18.50;99.90;;;;;;5040546;28;20361;-55
2022/10/21 12:56:44;;;;;;;3.03;1.20;;;18.60;99.90;;;;;;5038769;28;20203;-56
2022/10/21 12:59:29;;;;;;;1.47;1.00;;;18.70;99.90;;;;;;5042535;28;20202;-56
2022/10/21 13:02:04;;;;;;;2.20;1.20;;;18.70;99.90;;;;;;5043354;28;20203;-55
2022/10/21 13:04:31;;;;;;;1.57;0.97;;;18.70;99.90;;;;;;5040332;28;23193;-56
2022/10/21 13:07:00;;;;;;;1.97;1.10;;;18.80;99.90;;;;;;5041814;28;20208;-56
2022/10/21 13:09:37;;;;;;;3.73;0.87;;;19.20;99.90;;;;;;5037285;28;20201;-55
2022/10/21 13:12:06;;;;;;;1.57;0.90;;;19.40;99.90;;;;;;5039237;28;20730;-55